sensor_id;sensor_type;location;lat;lon;timestamp;P1;durP1;ratioP1;P2;durP2;ratioP2
72573;SDS011;60603;52.548;13.420;2023-04-25T00:01:11;5.78;;;2.65;;
72573;SDS011;60603;52.548;13.420;2023-04-25T00:03:39;7.20;;;2.65;;
72573;SDS011;60603;52.548;13.420;2023-04-25T00:06:05;6.07;;;2.58;;
72573;SDS011;60603;52.548;13.420;2023-04-25T00:08:31;8.55;;;2.80;;
72573;SDS011;60603;52.548;13.420;2023-04-25T00:10:58;5.13;;;2.42;;
72573;SDS011;60603;52.548;13.420;2023-04-25T00:13:24;5.68;;;2.67;;
72573;SDS011;60603;52.548;13.420;2023-04-25T00:15:51;6.97;;;3.00;;
72573;SDS011;60603;52.548;13.420;2023-04-25T00:18:18;4.45;;;2.15;;
72573;SDS011;60603;52.548;13.420;2023-04-25T00:20:44;7.30;;;2.38;;
72573;SDS011;60603;52.548;13.420;2023-04-25T00:23:15;4.65;;;2.30;;
72573;SDS011;60603;52.548;13.420;2023-04-25T00:25:43;8.20;;;2.88;;
72573;SDS011;60603;52.548;13.420;2023-04-25T00:28:10;7.68;;;2.25;;
72573;SDS011;60603;52.548;13.420;2023-04-25T00:30:36;4.13;;;2.65;;
72573;SDS011;60603;52.548;13.420;2023-04-25T00:33:02;7.20;;;2.15;;
72573;SDS011;60603;52.548;13.420;2023-04-25T00:35:28;6.30;;;2.60;;
72573;SDS011;60603;52.548;13.420;2023-04-25T00:37:54;7.65;;;2.38;;
72573;SDS011;60603;52.548;13.420;2023-04-25T00:40:20;4.97;;;1.98;;
72573;SDS011;60603;52.548;13.420;2023-04-25T00:42:46;6.40;;;2.22;;
72573;SDS011;60603;52.548;13.420;2023-04-25T00:45:13;7.30;;;2.25;;
72573;SDS011;60603;52.548;13.420;2023-04-25T00:47:40;5.72;;;2.13;;
72573;SDS011;60603;52.548;13.420;2023-04-25T00:50:06;5.28;;;2.05;;
72573;SDS011;60603;52.548;13.420;2023-04-25T00:52:32;5.45;;;2.28;;
72573;SDS011;60603;52.548;13.420;2023-04-25T00:54:58;8.68;;;2.50;;
72573;SDS011;60603;52.548;13.420;2023-04-25T00:57:24;7.25;;;2.50;;
72573;SDS011;60603;52.548;13.420;2023-04-25T00:59:51;6.22;;;2.60;;
72573;SDS011;60603;52.548;13.420;2023-04-25T01:02:17;5.70;;;2.10;;
72573;SDS011;60603;52.548;13.420;2023-04-25T01:04:43;10.57;;;2.78;;
72573;SDS011;60603;52.548;13.420;2023-04-25T01:07:09;7.20;;;2.28;;
72573;SDS011;60603;52.548;13.420;2023-04-25T01:09:35;7.60;;;2.30;;
72573;SDS011;60603;52.548;13.420;2023-04-25T01:12:01;5.38;;;2.55;;
72573;SDS011;60603;52.548;13.420;2023-04-25T01:14:28;8.95;;;2.55;;
72573;SDS011;60603;52.548;13.420;2023-04-25T01:16:55;10.90;;;2.28;;
72573;SDS011;60603;52.548;13.420;2023-04-25T01:19:21;7.10;;;2.67;;
72573;SDS011;60603;52.548;13.420;2023-04-25T01:21:46;4.95;;;2.28;;
72573;SDS011;60603;52.548;13.420;2023-04-25T01:24:12;6.78;;;2.47;;
72573;SDS011;60603;52.548;13.420;2023-04-25T01:26:38;5.78;;;2.28;;
72573;SDS011;60603;52.548;13.420;2023-04-25T01:29:06;9.70;;;2.50;;
72573;SDS011;60603;52.548;13.420;2023-04-25T01:31:33;6.10;;;2.42;;
72573;SDS011;60603;52.548;13.420;2023-04-25T01:33:59;5.95;;;2.47;;
72573;SDS011;60603;52.548;13.420;2023-04-25T01:36:25;7.45;;;2.42;;
72573;SDS011;60603;52.548;13.420;2023-04-25T01:38:50;7.07;;;2.70;;
72573;SDS011;60603;52.548;13.420;2023-04-25T01:41:16;6.30;;;2.47;;
72573;SDS011;60603;52.548;13.420;2023-04-25T01:43:43;8.00;;;2.75;;
72573;SDS011;60603;52.548;13.420;2023-04-25T01:46:10;7.45;;;3.17;;
72573;SDS011;60603;52.548;13.420;2023-04-25T01:48:37;5.65;;;2.20;;
72573;SDS011;60603;52.548;13.420;2023-04-25T01:51:02;9.35;;;2.60;;
72573;SDS011;60603;52.548;13.420;2023-04-25T01:53:29;8.00;;;2.40;;
72573;SDS011;60603;52.548;13.420;2023-04-25T01:55:54;8.10;;;2.22;;
72573;SDS011;60603;52.548;13.420;2023-04-25T01:58:20;7.78;;;2.60;;
72573;SDS011;60603;52.548;13.420;2023-04-25T02:00:46;10.63;;;3.20;;
72573;SDS011;60603;52.548;13.420;2023-04-25T02:03:12;7.07;;;2.10;;
72573;SDS011;60603;52.548;13.420;2023-04-25T02:05:37;6.25;;;2.42;;
72573;SDS011;60603;52.548;13.420;2023-04-25T02:08:08;10.18;;;3.08;;
72573;SDS011;60603;52.548;13.420;2023-04-25T02:10:34;6.22;;;2.38;;
72573;SDS011;60603;52.548;13.420;2023-04-25T02:13:00;10.70;;;3.17;;
72573;SDS011;60603;52.548;13.420;2023-04-25T02:15:26;6.03;;;2.72;;
72573;SDS011;60603;52.548;13.420;2023-04-25T02:17:52;7.25;;;2.78;;
72573;SDS011;60603;52.548;13.420;2023-04-25T02:20:18;10.07;;;2.92;;
72573;SDS011;60603;52.548;13.420;2023-04-25T02:22:45;7.50;;;2.55;;
72573;SDS011;60603;52.548;13.420;2023-04-25T02:25:11;5.07;;;2.47;;
72573;SDS011;60603;52.548;13.420;2023-04-25T02:27:37;8.50;;;2.70;;
72573;SDS011;60603;52.548;13.420;2023-04-25T02:30:03;6.70;;;2.80;;
72573;SDS011;60603;52.548;13.420;2023-04-25T02:32:30;8.73;;;2.90;;
72573;SDS011;60603;52.548;13.420;2023-04-25T02:34:56;6.45;;;2.90;;
72573;SDS011;60603;52.548;13.420;2023-04-25T02:37:24;9.45;;;2.80;;
72573;SDS011;60603;52.548;13.420;2023-04-25T02:39:49;6.63;;;2.78;;
72573;SDS011;60603;52.548;13.420;2023-04-25T02:42:15;10.38;;;3.10;;
72573;SDS011;60603;52.548;13.420;2023-04-25T02:44:41;12.50;;;3.75;;
72573;SDS011;60603;52.548;13.420;2023-04-25T02:47:07;9.30;;;3.03;;
72573;SDS011;60603;52.548;13.420;2023-04-25T02:49:32;8.27;;;3.38;;
72573;SDS011;60603;52.548;13.420;2023-04-25T02:51:58;9.50;;;3.72;;
72573;SDS011;60603;52.548;13.420;2023-04-25T02:54:23;8.10;;;3.17;;
72573;SDS011;60603;52.548;13.420;2023-04-25T02:56:49;9.55;;;3.35;;
72573;SDS011;60603;52.548;13.420;2023-04-25T02:59:15;10.43;;;3.20;;
72573;SDS011;60603;52.548;13.420;2023-04-25T03:01:40;8.20;;;3.55;;
72573;SDS011;60603;52.548;13.420;2023-04-25T03:04:06;6.00;;;2.65;;
72573;SDS011;60603;52.548;13.420;2023-04-25T03:06:32;7.78;;;3.42;;
72573;SDS011;60603;52.548;13.420;2023-04-25T03:08:57;8.85;;;3.13;;
72573;SDS011;60603;52.548;13.420;2023-04-25T03:11:25;6.70;;;2.83;;
72573;SDS011;60603;52.548;13.420;2023-04-25T03:13:50;9.45;;;3.40;;
72573;SDS011;60603;52.548;13.420;2023-04-25T03:16:16;10.38;;;3.58;;
72573;SDS011;60603;52.548;13.420;2023-04-25T03:18:42;9.27;;;3.60;;
72573;SDS011;60603;52.548;13.420;2023-04-25T03:21:08;7.75;;;3.17;;
72573;SDS011;60603;52.548;13.420;2023-04-25T03:23:33;8.80;;;3.50;;
72573;SDS011;60603;52.548;13.420;2023-04-25T03:25:59;10.73;;;3.30;;
72573;SDS011;60603;52.548;13.420;2023-04-25T03:28:25;10.27;;;3.40;;
72573;SDS011;60603;52.548;13.420;2023-04-25T03:30:51;9.75;;;3.55;;
72573;SDS011;60603;52.548;13.420;2023-04-25T03:33:16;9.32;;;3.47;;
72573;SDS011;60603;52.548;13.420;2023-04-25T03:35:42;12.38;;;3.47;;
72573;SDS011;60603;52.548;13.420;2023-04-25T03:38:08;7.13;;;3.33;;
72573;SDS011;60603;52.548;13.420;2023-04-25T03:40:34;14.15;;;4.03;;
72573;SDS011;60603;52.548;13.420;2023-04-25T03:42:59;11.38;;;3.60;;
72573;SDS011;60603;52.548;13.420;2023-04-25T03:45:25;13.93;;;4.47;;
72573;SDS011;60603;52.548;13.420;2023-04-25T03:47:50;9.35;;;3.58;;
72573;SDS011;60603;52.548;13.420;2023-04-25T03:50:16;9.63;;;3.83;;
72573;SDS011;60603;52.548;13.420;2023-04-25T03:52:42;8.85;;;3.45;;
72573;SDS011;60603;52.548;13.420;2023-04-25T03:55:09;9.88;;;3.78;;
72573;SDS011;60603;52.548;13.420;2023-04-25T03:57:35;6.95;;;3.25;;
72573;SDS011;60603;52.548;13.420;2023-04-25T04:00:00;9.10;;;3.40;;
72573;SDS011;60603;52.548;13.420;2023-04-25T04:02:26;10.75;;;3.72;;
72573;SDS011;60603;52.548;13.420;2023-04-25T04:04:52;10.35;;;3.88;;
72573;SDS011;60603;52.548;13.420;2023-04-25T04:07:18;8.02;;;3.47;;
72573;SDS011;60603;52.548;13.420;2023-04-25T04:09:44;8.48;;;3.80;;
72573;SDS011;60603;52.548;13.420;2023-04-25T04:12:09;10.90;;;4.30;;
72573;SDS011;60603;52.548;13.420;2023-04-25T04:14:35;8.63;;;3.60;;
72573;SDS011;60603;52.548;13.420;2023-04-25T04:17:01;9.52;;;3.45;;
72573;SDS011;60603;52.548;13.420;2023-04-25T04:19:27;13.15;;;3.50;;
72573;SDS011;60603;52.548;13.420;2023-04-25T04:21:52;7.90;;;3.35;;
72573;SDS011;60603;52.548;13.420;2023-04-25T04:24:18;7.85;;;3.53;;
72573;SDS011;60603;52.548;13.420;2023-04-25T04:26:44;9.65;;;3.38;;
72573;SDS011;60603;52.548;13.420;2023-04-25T04:29:10;8.35;;;3.58;;
72573;SDS011;60603;52.548;13.420;2023-04-25T04:31:36;7.03;;;3.20;;
72573;SDS011;60603;52.548;13.420;2023-04-25T04:34:02;8.73;;;3.13;;
72573;SDS011;60603;52.548;13.420;2023-04-25T04:36:28;9.60;;;3.38;;
72573;SDS011;60603;52.548;13.420;2023-04-25T04:38:55;8.65;;;3.67;;
72573;SDS011;60603;52.548;13.420;2023-04-25T04:41:23;6.53;;;3.13;;
72573;SDS011;60603;52.548;13.420;2023-04-25T04:43:48;14.75;;;7.63;;
72573;SDS011;60603;52.548;13.420;2023-04-25T04:46:14;9.00;;;3.45;;
72573;SDS011;60603;52.548;13.420;2023-04-25T04:48:40;5.80;;;2.92;;
72573;SDS011;60603;52.548;13.420;2023-04-25T04:51:05;7.53;;;3.15;;
72573;SDS011;60603;52.548;13.420;2023-04-25T04:53:32;8.25;;;2.95;;
72573;SDS011;60603;52.548;13.420;2023-04-25T04:55:57;10.27;;;2.78;;
72573;SDS011;60603;52.548;13.420;2023-04-25T04:58:23;7.65;;;3.20;;
72573;SDS011;60603;52.548;13.420;2023-04-25T05:00:49;9.18;;;3.25;;
72573;SDS011;60603;52.548;13.420;2023-04-25T05:03:15;9.35;;;3.40;;
72573;SDS011;60603;52.548;13.420;2023-04-25T05:05:41;9.55;;;3.20;;
72573;SDS011;60603;52.548;13.420;2023-04-25T05:08:07;6.60;;;3.20;;
72573;SDS011;60603;52.548;13.420;2023-04-25T05:10:32;8.27;;;2.78;;
72573;SDS011;60603;52.548;13.420;2023-04-25T05:12:58;7.28;;;3.03;;
72573;SDS011;60603;52.548;13.420;2023-04-25T05:15:24;7.50;;;3.40;;
72573;SDS011;60603;52.548;13.420;2023-04-25T05:17:50;6.95;;;3.10;;
72573;SDS011;60603;52.548;13.420;2023-04-25T05:20:15;13.82;;;4.13;;
72573;SDS011;60603;52.548;13.420;2023-04-25T05:22:41;7.30;;;3.90;;
72573;SDS011;60603;52.548;13.420;2023-04-25T05:25:09;7.65;;;2.97;;
72573;SDS011;60603;52.548;13.420;2023-04-25T05:27:35;5.82;;;2.58;;
72573;SDS011;60603;52.548;13.420;2023-04-25T05:30:01;14.98;;;3.30;;
72573;SDS011;60603;52.548;13.420;2023-04-25T05:32:27;9.23;;;3.47;;
72573;SDS011;60603;52.548;13.420;2023-04-25T05:34:52;10.25;;;3.65;;
72573;SDS011;60603;52.548;13.420;2023-04-25T05:37:18;12.88;;;5.35;;
72573;SDS011;60603;52.548;13.420;2023-04-25T05:39:44;10.65;;;3.38;;
72573;SDS011;60603;52.548;13.420;2023-04-25T05:42:09;12.07;;;3.80;;
72573;SDS011;60603;52.548;13.420;2023-04-25T05:44:35;10.30;;;3.38;;
72573;SDS011;60603;52.548;13.420;2023-04-25T05:47:01;9.15;;;3.70;;
72573;SDS011;60603;52.548;13.420;2023-04-25T05:49:27;8.60;;;3.08;;
72573;SDS011;60603;52.548;13.420;2023-04-25T05:51:52;8.10;;;3.50;;
72573;SDS011;60603;52.548;13.420;2023-04-25T05:54:18;7.03;;;3.08;;
72573;SDS011;60603;52.548;13.420;2023-04-25T05:56:44;12.25;;;4.22;;
72573;SDS011;60603;52.548;13.420;2023-04-25T05:59:09;10.75;;;3.40;;
72573;SDS011;60603;52.548;13.420;2023-04-25T06:01:35;8.27;;;3.92;;
72573;SDS011;60603;52.548;13.420;2023-04-25T06:04:01;7.70;;;3.50;;
72573;SDS011;60603;52.548;13.420;2023-04-25T06:06:27;9.02;;;3.55;;
72573;SDS011;60603;52.548;13.420;2023-04-25T06:08:52;10.73;;;4.32;;
72573;SDS011;60603;52.548;13.420;2023-04-25T06:11:18;10.23;;;4.15;;
72573;SDS011;60603;52.548;13.420;2023-04-25T06:13:45;8.27;;;3.80;;
72573;SDS011;60603;52.548;13.420;2023-04-25T06:16:11;8.65;;;3.50;;
72573;SDS011;60603;52.548;13.420;2023-04-25T06:18:37;8.30;;;3.28;;
72573;SDS011;60603;52.548;13.420;2023-04-25T06:21:02;8.65;;;3.55;;
72573;SDS011;60603;52.548;13.420;2023-04-25T06:23:28;9.57;;;3.72;;
72573;SDS011;60603;52.548;13.420;2023-04-25T06:25:54;7.88;;;3.47;;
72573;SDS011;60603;52.548;13.420;2023-04-25T06:28:19;6.95;;;3.45;;
72573;SDS011;60603;52.548;13.420;2023-04-25T06:30:47;8.25;;;3.38;;
72573;SDS011;60603;52.548;13.420;2023-04-25T06:33:12;11.63;;;4.85;;
72573;SDS011;60603;52.548;13.420;2023-04-25T06:35:38;8.57;;;3.47;;
72573;SDS011;60603;52.548;13.420;2023-04-25T06:38:04;11.50;;;4.28;;
72573;SDS011;60603;52.548;13.420;2023-04-25T06:40:30;12.50;;;3.75;;
72573;SDS011;60603;52.548;13.420;2023-04-25T06:42:55;11.10;;;4.35;;
72573;SDS011;60603;52.548;13.420;2023-04-25T06:45:21;6.80;;;3.60;;
72573;SDS011;60603;52.548;13.420;2023-04-25T06:47:47;9.63;;;4.25;;
72573;SDS011;60603;52.548;13.420;2023-04-25T06:50:13;10.52;;;3.50;;
72573;SDS011;60603;52.548;13.420;2023-04-25T06:52:38;10.30;;;4.80;;
72573;SDS011;60603;52.548;13.420;2023-04-25T06:55:04;9.88;;;4.20;;
72573;SDS011;60603;52.548;13.420;2023-04-25T06:57:30;7.13;;;3.38;;
72573;SDS011;60603;52.548;13.420;2023-04-25T06:59:56;8.48;;;3.10;;
72573;SDS011;60603;52.548;13.420;2023-04-25T07:02:22;10.18;;;4.07;;
72573;SDS011;60603;52.548;13.420;2023-04-25T07:04:47;9.25;;;3.55;;
72573;SDS011;60603;52.548;13.420;2023-04-25T07:07:13;7.45;;;3.58;;
72573;SDS011;60603;52.548;13.420;2023-04-25T07:09:39;8.43;;;3.58;;
72573;SDS011;60603;52.548;13.420;2023-04-25T07:12:04;8.93;;;3.53;;
72573;SDS011;60603;52.548;13.420;2023-04-25T07:14:30;10.60;;;3.40;;
72573;SDS011;60603;52.548;13.420;2023-04-25T07:16:56;8.98;;;3.40;;
72573;SDS011;60603;52.548;13.420;2023-04-25T07:19:22;9.10;;;3.28;;
72573;SDS011;60603;52.548;13.420;2023-04-25T07:21:51;9.05;;;3.22;;
72573;SDS011;60603;52.548;13.420;2023-04-25T07:24:17;10.90;;;4.25;;
72573;SDS011;60603;52.548;13.420;2023-04-25T07:26:43;7.55;;;3.28;;
72573;SDS011;60603;52.548;13.420;2023-04-25T07:29:09;15.02;;;4.07;;
72573;SDS011;60603;52.548;13.420;2023-04-25T07:31:35;12.35;;;4.45;;
72573;SDS011;60603;52.548;13.420;2023-04-25T07:34:01;9.32;;;3.20;;
72573;SDS011;60603;52.548;13.420;2023-04-25T07:36:26;7.55;;;3.17;;
72573;SDS011;60603;52.548;13.420;2023-04-25T07:38:52;8.68;;;3.15;;
72573;SDS011;60603;52.548;13.420;2023-04-25T07:41:18;11.68;;;3.50;;
72573;SDS011;60603;52.548;13.420;2023-04-25T07:43:43;9.15;;;2.97;;
72573;SDS011;60603;52.548;13.420;2023-04-25T07:46:10;11.63;;;4.00;;
72573;SDS011;60603;52.548;13.420;2023-04-25T07:48:36;12.50;;;3.80;;
72573;SDS011;60603;52.548;13.420;2023-04-25T07:51:01;10.38;;;3.30;;
72573;SDS011;60603;52.548;13.420;2023-04-25T07:53:33;11.85;;;3.38;;
72573;SDS011;60603;52.548;13.420;2023-04-25T07:56:01;10.05;;;3.15;;
72573;SDS011;60603;52.548;13.420;2023-04-25T07:58:26;11.48;;;3.72;;
72573;SDS011;60603;52.548;13.420;2023-04-25T08:00:52;9.85;;;3.08;;
72573;SDS011;60603;52.548;13.420;2023-04-25T08:03:18;22.33;;;3.42;;
72573;SDS011;60603;52.548;13.420;2023-04-25T08:05:44;11.15;;;3.40;;
72573;SDS011;60603;52.548;13.420;2023-04-25T08:08:10;17.75;;;3.65;;
72573;SDS011;60603;52.548;13.420;2023-04-25T08:10:36;14.10;;;3.30;;
72573;SDS011;60603;52.548;13.420;2023-04-25T08:13:02;9.75;;;3.30;;
72573;SDS011;60603;52.548;13.420;2023-04-25T08:15:28;18.63;;;4.13;;
72573;SDS011;60603;52.548;13.420;2023-04-25T08:17:53;14.93;;;3.50;;
72573;SDS011;60603;52.548;13.420;2023-04-25T08:20:19;18.20;;;3.70;;
72573;SDS011;60603;52.548;13.420;2023-04-25T08:22:45;11.13;;;2.97;;
72573;SDS011;60603;52.548;13.420;2023-04-25T08:25:10;16.98;;;3.30;;
72573;SDS011;60603;52.548;13.420;2023-04-25T08:27:36;11.60;;;3.80;;
72573;SDS011;60603;52.548;13.420;2023-04-25T08:30:03;11.90;;;3.15;;
72573;SDS011;60603;52.548;13.420;2023-04-25T08:32:29;15.07;;;3.05;;
72573;SDS011;60603;52.548;13.420;2023-04-25T08:34:55;11.50;;;3.05;;
72573;SDS011;60603;52.548;13.420;2023-04-25T08:37:20;10.23;;;2.60;;
72573;SDS011;60603;52.548;13.420;2023-04-25T08:39:47;12.85;;;3.72;;
72573;SDS011;60603;52.548;13.420;2023-04-25T08:42:17;9.45;;;2.67;;
72573;SDS011;60603;52.548;13.420;2023-04-25T08:44:44;13.25;;;2.53;;
72573;SDS011;60603;52.548;13.420;2023-04-25T08:47:11;8.38;;;2.95;;
72573;SDS011;60603;52.548;13.420;2023-04-25T08:49:36;12.02;;;2.90;;
72573;SDS011;60603;52.548;13.420;2023-04-25T08:52:04;13.90;;;2.88;;
72573;SDS011;60603;52.548;13.420;2023-04-25T08:54:31;11.18;;;2.92;;
72573;SDS011;60603;52.548;13.420;2023-04-25T08:56:57;13.13;;;3.30;;
72573;SDS011;60603;52.548;13.420;2023-04-25T08:59:27;13.35;;;2.35;;
72573;SDS011;60603;52.548;13.420;2023-04-25T09:01:53;10.95;;;2.70;;
72573;SDS011;60603;52.548;13.420;2023-04-25T09:04:19;11.93;;;2.67;;
72573;SDS011;60603;52.548;13.420;2023-04-25T09:06:46;9.85;;;2.17;;
72573;SDS011;60603;52.548;13.420;2023-04-25T09:09:12;7.47;;;2.10;;
72573;SDS011;60603;52.548;13.420;2023-04-25T09:11:38;9.55;;;2.30;;
72573;SDS011;60603;52.548;13.420;2023-04-25T09:14:13;13.32;;;2.40;;
72573;SDS011;60603;52.548;13.420;2023-04-25T09:19:22;6.50;;;2.72;;
72573;SDS011;60603;52.548;13.420;2023-04-25T09:24:29;12.05;;;2.30;;
72573;SDS011;60603;52.548;13.420;2023-04-25T09:26:58;8.77;;;2.17;;
72573;SDS011;60603;52.548;13.420;2023-04-25T09:29:28;9.38;;;2.60;;
72573;SDS011;60603;52.548;13.420;2023-04-25T09:32:11;6.97;;;2.10;;
72573;SDS011;60603;52.548;13.420;2023-04-25T09:34:41;6.70;;;2.17;;
72573;SDS011;60603;52.548;13.420;2023-04-25T09:37:09;8.57;;;2.38;;
72573;SDS011;60603;52.548;13.420;2023-04-25T09:39:39;8.88;;;2.22;;
72573;SDS011;60603;52.548;13.420;2023-04-25T09:42:05;8.68;;;2.25;;
72573;SDS011;60603;52.548;13.420;2023-04-25T09:44:31;8.90;;;2.20;;
72573;SDS011;60603;52.548;13.420;2023-04-25T09:46:56;8.20;;;1.85;;
72573;SDS011;60603;52.548;13.420;2023-04-25T09:49:22;7.97;;;1.98;;
72573;SDS011;60603;52.548;13.420;2023-04-25T09:51:58;6.47;;;1.92;;
72573;SDS011;60603;52.548;13.420;2023-04-25T09:54:24;8.95;;;2.22;;
72573;SDS011;60603;52.548;13.420;2023-04-25T09:56:51;6.07;;;1.75;;
72573;SDS011;60603;52.548;13.420;2023-04-25T09:59:21;7.72;;;1.75;;
72573;SDS011;60603;52.548;13.420;2023-04-25T10:01:50;9.25;;;1.92;;
72573;SDS011;60603;52.548;13.420;2023-04-25T10:04:19;5.20;;;1.77;;
72573;SDS011;60603;52.548;13.420;2023-04-25T10:06:48;8.38;;;1.80;;
72573;SDS011;60603;52.548;13.420;2023-04-25T10:09:16;8.73;;;2.10;;
72573;SDS011;60603;52.548;13.420;2023-04-25T10:11:45;8.35;;;1.77;;
72573;SDS011;60603;52.548;13.420;2023-04-25T10:14:13;6.00;;;1.80;;
72573;SDS011;60603;52.548;13.420;2023-04-25T10:16:39;6.72;;;1.60;;
72573;SDS011;60603;52.548;13.420;2023-04-25T10:19:05;11.40;;;2.13;;
72573;SDS011;60603;52.548;13.420;2023-04-25T10:21:31;6.43;;;2.13;;
72573;SDS011;60603;52.548;13.420;2023-04-25T10:23:58;9.30;;;2.20;;
72573;SDS011;60603;52.548;13.420;2023-04-25T10:26:24;6.93;;;1.90;;
72573;SDS011;60603;52.548;13.420;2023-04-25T10:31:26;7.53;;;1.60;;
72573;SDS011;60603;52.548;13.420;2023-04-25T10:33:52;7.57;;;2.03;;
72573;SDS011;60603;52.548;13.420;2023-04-25T10:36:19;9.45;;;2.00;;
72573;SDS011;60603;52.548;13.420;2023-04-25T10:38:49;8.23;;;1.90;;
72573;SDS011;60603;52.548;13.420;2023-04-25T10:41:17;7.28;;;1.88;;
72573;SDS011;60603;52.548;13.420;2023-04-25T10:43:45;8.55;;;2.10;;
72573;SDS011;60603;52.548;13.420;2023-04-25T10:46:27;9.85;;;2.28;;
72573;SDS011;60603;52.548;13.420;2023-04-25T10:48:55;7.75;;;1.90;;
72573;SDS011;60603;52.548;13.420;2023-04-25T10:51:25;11.43;;;2.47;;
72573;SDS011;60603;52.548;13.420;2023-04-25T10:56:21;4.88;;;1.67;;
72573;SDS011;60603;52.548;13.420;2023-04-25T10:58:48;5.93;;;1.85;;
72573;SDS011;60603;52.548;13.420;2023-04-25T11:01:15;7.90;;;2.00;;
72573;SDS011;60603;52.548;13.420;2023-04-25T11:03:41;7.78;;;1.70;;
72573;SDS011;60603;52.548;13.420;2023-04-25T11:06:20;6.32;;;1.50;;
72573;SDS011;60603;52.548;13.420;2023-04-25T11:08:51;14.20;;;2.00;;
72573;SDS011;60603;52.548;13.420;2023-04-25T11:11:17;7.90;;;1.90;;
72573;SDS011;60603;52.548;13.420;2023-04-25T11:13:43;6.47;;;1.90;;
72573;SDS011;60603;52.548;13.420;2023-04-25T11:16:09;9.57;;;2.47;;
72573;SDS011;60603;52.548;13.420;2023-04-25T11:18:35;5.45;;;1.60;;
72573;SDS011;60603;52.548;13.420;2023-04-25T11:21:00;8.77;;;1.73;;
72573;SDS011;60603;52.548;13.420;2023-04-25T11:23:27;9.20;;;2.40;;
72573;SDS011;60603;52.548;13.420;2023-04-25T11:25:52;11.65;;;1.92;;
72573;SDS011;60603;52.548;13.420;2023-04-25T11:28:21;6.75;;;1.73;;
72573;SDS011;60603;52.548;13.420;2023-04-25T11:30:48;14.02;;;3.47;;
72573;SDS011;60603;52.548;13.420;2023-04-25T11:33:16;6.05;;;1.70;;
72573;SDS011;60603;52.548;13.420;2023-04-25T11:35:42;8.70;;;1.80;;
72573;SDS011;60603;52.548;13.420;2023-04-25T11:38:08;6.28;;;1.73;;
72573;SDS011;60603;52.548;13.420;2023-04-25T11:40:35;7.47;;;2.15;;
72573;SDS011;60603;52.548;13.420;2023-04-25T11:43:01;6.15;;;1.70;;
72573;SDS011;60603;52.548;13.420;2023-04-25T11:45:27;6.05;;;1.67;;
72573;SDS011;60603;52.548;13.420;2023-04-25T11:47:54;5.32;;;1.50;;
72573;SDS011;60603;52.548;13.420;2023-04-25T11:50:20;10.75;;;2.42;;
72573;SDS011;60603;52.548;13.420;2023-04-25T11:52:46;4.90;;;1.40;;
72573;SDS011;60603;52.548;13.420;2023-04-25T11:55:13;6.53;;;1.60;;
72573;SDS011;60603;52.548;13.420;2023-04-25T11:57:40;6.88;;;1.77;;
72573;SDS011;60603;52.548;13.420;2023-04-25T12:02:41;8.80;;;1.83;;
72573;SDS011;60603;52.548;13.420;2023-04-25T12:05:08;6.00;;;1.73;;
72573;SDS011;60603;52.548;13.420;2023-04-25T12:07:34;5.15;;;1.73;;
72573;SDS011;60603;52.548;13.420;2023-04-25T12:10:04;4.82;;;1.73;;
72573;SDS011;60603;52.548;13.420;2023-04-25T12:12:33;7.15;;;1.70;;
72573;SDS011;60603;52.548;13.420;2023-04-25T12:15:19;5.80;;;2.05;;
72573;SDS011;60603;52.548;13.420;2023-04-25T12:17:50;5.18;;;1.48;;
72573;SDS011;60603;52.548;13.420;2023-04-25T12:20:20;9.77;;;1.75;;
72573;SDS011;60603;52.548;13.420;2023-04-25T12:22:50;4.80;;;1.90;;
72573;SDS011;60603;52.548;13.420;2023-04-25T12:28:14;6.97;;;2.13;;
72573;SDS011;60603;52.548;13.420;2023-04-25T12:33:28;9.32;;;2.03;;
72573;SDS011;60603;52.548;13.420;2023-04-25T12:35:55;6.50;;;1.60;;
72573;SDS011;60603;52.548;13.420;2023-04-25T12:38:22;4.82;;;1.45;;
72573;SDS011;60603;52.548;13.420;2023-04-25T12:40:52;6.43;;;2.40;;
72573;SDS011;60603;52.548;13.420;2023-04-25T12:43:18;5.82;;;2.10;;
72573;SDS011;60603;52.548;13.420;2023-04-25T12:45:44;6.50;;;1.60;;
72573;SDS011;60603;52.548;13.420;2023-04-25T12:48:12;5.82;;;1.40;;
72573;SDS011;60603;52.548;13.420;2023-04-25T12:50:38;5.43;;;1.38;;
72573;SDS011;60603;52.548;13.420;2023-04-25T12:53:04;7.43;;;2.08;;
72573;SDS011;60603;52.548;13.420;2023-04-25T12:55:29;6.32;;;1.92;;
72573;SDS011;60603;52.548;13.420;2023-04-25T12:57:55;5.32;;;1.85;;
72573;SDS011;60603;52.548;13.420;2023-04-25T13:00:21;4.25;;;1.90;;
72573;SDS011;60603;52.548;13.420;2023-04-25T13:02:47;7.30;;;1.95;;
72573;SDS011;60603;52.548;13.420;2023-04-25T13:05:12;8.57;;;1.48;;
72573;SDS011;60603;52.548;13.420;2023-04-25T13:07:38;3.92;;;1.50;;
72573;SDS011;60603;52.548;13.420;2023-04-25T13:10:04;6.30;;;1.60;;
72573;SDS011;60603;52.548;13.420;2023-04-25T13:12:31;6.00;;;1.80;;
72573;SDS011;60603;52.548;13.420;2023-04-25T13:14:56;6.70;;;1.60;;
72573;SDS011;60603;52.548;13.420;2023-04-25T13:17:22;10.32;;;1.55;;
72573;SDS011;60603;52.548;13.420;2023-04-25T13:19:48;6.88;;;1.80;;
72573;SDS011;60603;52.548;13.420;2023-04-25T13:22:14;5.28;;;1.48;;
72573;SDS011;60603;52.548;13.420;2023-04-25T13:24:42;5.82;;;1.45;;
72573;SDS011;60603;52.548;13.420;2023-04-25T13:27:08;5.43;;;1.58;;
72573;SDS011;60603;52.548;13.420;2023-04-25T13:29:34;12.98;;;1.90;;
72573;SDS011;60603;52.548;13.420;2023-04-25T13:32:01;6.57;;;1.25;;
72573;SDS011;60603;52.548;13.420;2023-04-25T13:34:27;4.97;;;1.60;;
72573;SDS011;60603;52.548;13.420;2023-04-25T13:36:54;5.80;;;1.50;;
72573;SDS011;60603;52.548;13.420;2023-04-25T13:39:19;7.05;;;1.50;;
72573;SDS011;60603;52.548;13.420;2023-04-25T13:41:45;7.68;;;1.60;;
72573;SDS011;60603;52.548;13.420;2023-04-25T13:44:11;9.07;;;2.13;;
72573;SDS011;60603;52.548;13.420;2023-04-25T13:46:37;6.65;;;1.58;;
72573;SDS011;60603;52.548;13.420;2023-04-25T13:49:03;9.95;;;1.83;;
72573;SDS011;60603;52.548;13.420;2023-04-25T13:51:29;5.85;;;1.50;;
72573;SDS011;60603;52.548;13.420;2023-04-25T13:53:56;12.50;;;2.15;;
72573;SDS011;60603;52.548;13.420;2023-04-25T13:56:22;7.13;;;2.40;;
72573;SDS011;60603;52.548;13.420;2023-04-25T13:58:49;9.35;;;1.83;;
72573;SDS011;60603;52.548;13.420;2023-04-25T14:01:15;6.10;;;2.05;;
72573;SDS011;60603;52.548;13.420;2023-04-25T14:03:41;5.40;;;1.33;;
72573;SDS011;60603;52.548;13.420;2023-04-25T14:06:07;4.95;;;1.50;;
72573;SDS011;60603;52.548;13.420;2023-04-25T14:08:33;8.85;;;2.15;;
72573;SDS011;60603;52.548;13.420;2023-04-25T14:10:59;4.10;;;1.20;;
72573;SDS011;60603;52.548;13.420;2023-04-25T14:13:26;5.13;;;1.48;;
72573;SDS011;60603;52.548;13.420;2023-04-25T14:15:52;5.57;;;1.75;;
72573;SDS011;60603;52.548;13.420;2023-04-25T14:18:17;5.97;;;1.70;;
72573;SDS011;60603;52.548;13.420;2023-04-25T14:20:44;7.00;;;1.42;;
72573;SDS011;60603;52.548;13.420;2023-04-25T14:23:10;5.57;;;1.50;;
72573;SDS011;60603;52.548;13.420;2023-04-25T14:25:36;3.65;;;1.65;;
72573;SDS011;60603;52.548;13.420;2023-04-25T14:28:02;10.38;;;2.53;;
72573;SDS011;60603;52.548;13.420;2023-04-25T14:30:28;6.28;;;1.55;;
72573;SDS011;60603;52.548;13.420;2023-04-25T14:32:53;11.85;;;2.50;;
72573;SDS011;60603;52.548;13.420;2023-04-25T14:35:19;8.07;;;1.65;;
72573;SDS011;60603;52.548;13.420;2023-04-25T14:37:45;6.10;;;1.45;;
72573;SDS011;60603;52.548;13.420;2023-04-25T14:40:11;3.97;;;1.48;;
72573;SDS011;60603;52.548;13.420;2023-04-25T14:42:39;4.82;;;1.67;;
72573;SDS011;60603;52.548;13.420;2023-04-25T14:45:05;4.82;;;1.40;;